createdAt,value
2018-08-20T00:01:39.762Z,19.40
2018-08-20T00:04:10.058Z,19.40
2018-08-20T00:06:53.540Z,19.30
2018-08-20T00:09:32.042Z,19.30
2018-08-20T00:12:01.012Z,19.20
2018-08-20T00:14:30.164Z,19.00
2018-08-20T00:17:00.040Z,19.00
2018-08-20T00:19:29.004Z,19.10
2018-08-20T00:21:57.985Z,19.20
2018-08-20T00:24:27.017Z,19.30
2018-08-20T00:26:58.529Z,19.30
2018-08-20T00:29:27.517Z,19.30
2018-08-20T00:31:56.480Z,19.30
2018-08-20T00:34:25.462Z,19.30
2018-08-20T00:36:54.415Z,19.30
2018-08-20T00:39:23.345Z,19.20
2018-08-20T00:41:52.307Z,19.20
2018-08-20T00:44:21.300Z,19.20
2018-08-20T00:46:50.263Z,19.30
2018-08-20T00:49:19.200Z,19.30
2018-08-20T00:51:48.204Z,19.30
2018-08-20T00:54:17.141Z,19.40
2018-08-20T00:56:46.081Z,19.30
2018-08-20T00:59:15.095Z,19.40
2018-08-20T01:01:44.134Z,19.40
2018-08-20T01:04:13.586Z,19.40
2018-08-20T01:06:43.780Z,19.50
2018-08-20T01:09:12.832Z,19.50
2018-08-20T01:11:42.818Z,19.60
2018-08-20T01:14:11.813Z,19.60
2018-08-20T01:16:40.771Z,19.60
2018-08-20T01:19:09.724Z,19.60
2018-08-20T01:21:38.757Z,19.60
2018-08-20T01:24:07.686Z,19.50
2018-08-20T01:26:36.647Z,19.60
2018-08-20T01:29:05.898Z,19.50
2018-08-20T01:31:34.879Z,19.40
2018-08-20T01:34:03.833Z,19.50
2018-08-20T01:36:32.910Z,19.50
2018-08-20T01:39:01.886Z,19.50
2018-08-20T01:41:30.845Z,19.50
2018-08-20T01:43:59.889Z,19.50
2018-08-20T01:46:29.153Z,19.50
2018-08-20T01:48:58.078Z,19.50
2018-08-20T01:51:27.053Z,19.50
2018-08-20T01:53:55.996Z,19.50
2018-08-20T01:56:24.989Z,19.50
2018-08-20T01:58:53.924Z,19.50
2018-08-20T02:01:23.409Z,19.50
2018-08-20T02:03:52.382Z,19.50
2018-08-20T02:06:21.640Z,19.50
2018-08-20T02:08:50.645Z,19.50
2018-08-20T02:11:19.733Z,19.50
2018-08-20T02:13:48.744Z,19.40
2018-08-20T02:16:18.253Z,19.40
2018-08-20T02:18:47.227Z,19.40
2018-08-20T02:21:16.163Z,19.50
2018-08-20T02:23:45.120Z,19.50
2018-08-20T02:26:14.074Z,19.40
2018-08-20T02:28:43.039Z,19.40
2018-08-20T02:31:12.370Z,19.40
2018-08-20T02:33:41.320Z,19.40
2018-08-20T02:36:10.264Z,19.40
2018-08-20T02:38:39.235Z,19.50
2018-08-20T02:41:08.224Z,19.50
2018-08-20T02:43:37.296Z,19.50
2018-08-20T02:46:06.844Z,19.50
2018-08-20T02:48:35.801Z,19.60
2018-08-20T02:51:04.763Z,19.60
2018-08-20T02:53:33.797Z,19.70
2018-08-20T02:56:02.739Z,19.50
2018-08-20T02:58:32.632Z,19.50
2018-08-20T03:01:01.575Z,19.60
2018-08-20T03:03:30.632Z,19.60
2018-08-20T03:05:59.567Z,19.60
2018-08-20T03:08:28.529Z,19.60
2018-08-20T03:10:57.455Z,19.80
2018-08-20T03:13:26.420Z,19.80
2018-08-20T03:15:55.385Z,19.80
2018-08-20T03:18:24.337Z,19.80
2018-08-20T03:20:53.280Z,19.80
2018-08-20T03:23:22.244Z,19.80
2018-08-20T03:25:51.735Z,19.90
2018-08-20T03:28:20.693Z,19.90
2018-08-20T03:30:49.714Z,19.90
2018-08-20T03:33:18.920Z,19.90
2018-08-20T03:35:47.885Z,19.90
2018-08-20T03:38:16.852Z,19.90
2018-08-20T03:40:45.800Z,19.90
2018-08-20T03:43:14.756Z,20.00
2018-08-20T03:45:43.693Z,20.00
2018-08-20T03:48:12.913Z,20.00
2018-08-20T03:50:41.960Z,20.00
2018-08-20T03:53:10.951Z,20.10
2018-08-20T03:55:39.876Z,20.10
2018-08-20T03:58:08.927Z,20.10
2018-08-20T04:00:37.875Z,20.20
2018-08-20T04:03:07.729Z,20.20
2018-08-20T04:05:36.791Z,20.20
2018-08-20T04:08:05.771Z,20.20
2018-08-20T04:10:34.694Z,20.20
2018-08-20T04:13:03.640Z,20.20
2018-08-20T04:15:32.580Z,20.20
2018-08-20T04:18:01.896Z,20.20
2018-08-20T04:20:31.224Z,20.20
2018-08-20T04:23:00.195Z,20.20
2018-08-20T04:25:29.680Z,20.20
2018-08-20T04:27:58.632Z,20.30
2018-08-20T04:30:27.575Z,20.30
2018-08-20T04:32:56.511Z,20.40
2018-08-20T04:35:25.676Z,20.40
2018-08-20T04:37:54.614Z,20.50
2018-08-20T04:40:23.584Z,20.50
2018-08-20T04:42:52.533Z,20.60
2018-08-20T04:45:21.550Z,20.60
2018-08-20T04:47:50.501Z,20.70
2018-08-20T04:50:20.004Z,20.70
2018-08-20T04:52:49.816Z,20.80
2018-08-20T04:55:18.893Z,20.80
2018-08-20T04:57:47.872Z,20.80
2018-08-20T05:00:17.012Z,20.80
2018-08-20T05:02:45.936Z,20.90
2018-08-20T05:05:15.049Z,20.90
2018-08-20T05:07:43.988Z,21.00
2018-08-20T05:10:12.942Z,21.00
2018-08-20T05:12:41.873Z,21.00
2018-08-20T05:15:10.826Z,21.00
2018-08-20T05:17:39.763Z,21.10
2018-08-20T05:20:09.424Z,21.10
2018-08-20T05:22:38.368Z,21.10
2018-08-20T05:25:07.401Z,21.10
2018-08-20T05:27:36.391Z,21.20
2018-08-20T05:30:06.662Z,21.20
2018-08-20T05:32:35.610Z,21.20
2018-08-20T05:35:04.933Z,21.20
2018-08-20T05:37:33.875Z,21.20
2018-08-20T05:40:02.824Z,21.20
2018-08-20T05:42:31.801Z,21.30
2018-08-20T05:45:00.769Z,21.30
2018-08-20T05:47:29.712Z,21.30
2018-08-20T05:49:58.681Z,21.40
2018-08-20T05:52:27.625Z,21.40
2018-08-20T05:54:56.600Z,21.40
2018-08-20T05:57:25.526Z,21.50
2018-08-20T05:59:54.522Z,21.50
2018-08-20T06:02:23.541Z,21.50
2018-08-20T06:04:52.553Z,21.60
2018-08-20T06:07:21.496Z,21.60
2018-08-20T06:09:50.484Z,21.70
2018-08-20T06:12:19.416Z,21.70
2018-08-20T06:14:48.380Z,21.70
2018-08-20T06:17:17.704Z,21.80
2018-08-20T06:19:46.673Z,21.80
2018-08-20T06:22:15.620Z,21.80
2018-08-20T06:24:44.578Z,21.80
2018-08-20T06:27:13.556Z,21.80
2018-08-20T06:29:42.560Z,21.90
2018-08-20T06:32:11.496Z,21.90
2018-08-20T06:34:40.566Z,21.90
2018-08-20T06:37:09.500Z,21.90
2018-08-20T06:39:38.544Z,21.80
2018-08-20T06:42:07.779Z,21.90
2018-08-20T06:44:37.484Z,21.90
2018-08-20T06:47:07.116Z,21.90
2018-08-20T06:49:36.176Z,21.90
2018-08-20T06:52:05.776Z,21.90
2018-08-20T06:54:34.801Z,21.90
2018-08-20T06:57:03.883Z,21.90
2018-08-20T06:59:32.827Z,21.90
2018-08-20T07:02:01.804Z,22.00
2018-08-20T07:04:30.793Z,21.90
2018-08-20T07:06:59.753Z,21.90
2018-08-20T07:09:28.788Z,21.90
2018-08-20T07:11:57.803Z,21.90
2018-08-20T07:14:26.773Z,21.90
2018-08-20T07:16:55.736Z,21.90
2018-08-20T07:19:24.660Z,21.80
2018-08-20T07:21:53.617Z,21.80
2018-08-20T07:24:22.563Z,21.80
2018-08-20T07:26:51.528Z,21.70
2018-08-20T07:29:55.534Z,21.70
2018-08-20T07:32:24.498Z,21.70
2018-08-20T07:34:53.433Z,21.70
2018-08-20T07:37:23.268Z,21.70
2018-08-20T07:39:52.228Z,21.70
2018-08-20T07:42:21.197Z,21.80
2018-08-20T07:44:50.133Z,21.90
2018-08-20T07:47:19.081Z,21.90
2018-08-20T07:49:48.056Z,22.00
2018-08-20T07:52:17.038Z,22.00
2018-08-20T07:54:45.977Z,22.00
2018-08-20T07:57:14.964Z,22.10
2018-08-20T07:59:43.972Z,22.10
2018-08-20T08:02:13.026Z,22.20
2018-08-20T08:04:42.038Z,22.10
2018-08-20T08:07:11.100Z,22.10
2018-08-20T08:09:40.078Z,22.10
2018-08-20T08:12:09.240Z,22.20
2018-08-20T08:14:38.261Z,22.20
2018-08-20T08:17:08.410Z,22.20
2018-08-20T08:19:37.444Z,22.20
2018-08-20T08:22:07.840Z,22.10
2018-08-20T08:24:36.815Z,22.10
2018-08-20T08:27:06.355Z,22.10
2018-08-20T08:29:35.384Z,22.10
2018-08-20T08:32:05.592Z,22.10
2018-08-20T08:34:34.611Z,22.10
2018-08-20T08:37:04.345Z,22.10
2018-08-20T08:39:33.325Z,22.10
2018-08-20T08:42:02.352Z,22.10
2018-08-20T08:44:32.157Z,22.20
2018-08-20T08:47:01.266Z,22.20
2018-08-20T08:52:30.381Z,22.30
2018-08-20T08:54:59.312Z,22.40
2018-08-20T08:57:28.354Z,22.40
2018-08-20T08:59:57.356Z,22.50
2018-08-20T09:02:26.306Z,22.50
2018-08-20T09:04:55.255Z,22.50
2018-08-20T09:07:24.255Z,22.50
2018-08-20T09:09:53.206Z,22.60
2018-08-20T09:12:22.174Z,22.60
2018-08-20T09:14:51.146Z,22.60
2018-08-20T09:17:20.149Z,22.60
2018-08-20T09:19:49.197Z,22.60
2018-08-20T09:22:18.237Z,22.60
2018-08-20T09:24:47.421Z,22.60
2018-08-20T09:27:16.422Z,22.60
2018-08-20T09:29:45.418Z,22.60
2018-08-20T09:32:14.408Z,22.60
2018-08-20T09:34:43.365Z,22.50
2018-08-20T09:37:12.801Z,22.60
2018-08-20T09:39:41.759Z,22.60
2018-08-20T09:42:10.725Z,22.70
2018-08-20T09:44:39.693Z,22.70
2018-08-20T09:47:08.993Z,22.70
2018-08-20T09:49:37.991Z,22.80
2018-08-20T09:52:07.305Z,22.90
2018-08-20T09:54:36.291Z,22.90
2018-08-20T09:57:05.294Z,22.90
2018-08-20T09:59:34.281Z,23.00
2018-08-20T10:02:03.275Z,23.00
2018-08-20T10:04:32.285Z,23.00
2018-08-20T10:07:01.503Z,23.00
2018-08-20T10:09:30.671Z,23.10
2018-08-20T10:12:00.198Z,23.20
2018-08-20T10:14:29.193Z,23.20
2018-08-20T10:16:58.177Z,23.30
2018-08-20T10:19:27.264Z,23.40
2018-08-20T10:21:56.245Z,23.40
2018-08-20T10:24:25.273Z,23.50
2018-08-20T10:26:54.337Z,23.50
2018-08-20T10:29:23.332Z,23.40
2018-08-20T10:31:52.349Z,23.40
2018-08-20T10:34:21.318Z,23.40
2018-08-20T10:36:50.317Z,23.30
2018-08-20T10:39:19.332Z,23.30
2018-08-20T10:41:48.313Z,23.30
2018-08-20T10:44:17.309Z,23.20
2018-08-20T10:46:46.290Z,23.20
2018-08-20T10:49:15.302Z,23.20
2018-08-20T10:51:44.288Z,23.20
2018-08-20T10:54:13.272Z,23.20
2018-08-20T10:56:42.239Z,23.20
2018-08-20T10:59:11.176Z,23.20
2018-08-20T11:01:40.097Z,23.20
2018-08-20T11:04:09.080Z,23.20
2018-08-20T11:06:38.022Z,23.20
2018-08-20T11:09:08.036Z,23.20
2018-08-20T11:11:36.995Z,23.30
2018-08-20T11:14:05.945Z,23.30
2018-08-20T11:16:39.077Z,23.30
2018-08-20T11:19:08.032Z,23.30
2018-08-20T11:21:36.977Z,23.30
2018-08-20T11:24:08.372Z,23.30
2018-08-20T11:26:38.536Z,23.30
2018-08-20T11:29:07.481Z,23.30
2018-08-20T11:31:36.481Z,23.30
2018-08-20T11:34:05.464Z,23.30
2018-08-20T11:36:34.436Z,23.20
2018-08-20T11:39:05.179Z,23.20
2018-08-20T11:41:34.100Z,23.20
2018-08-20T11:44:03.092Z,23.10
2018-08-20T11:46:32.325Z,23.10
2018-08-20T11:49:01.641Z,23.10
2018-08-20T11:51:30.488Z,23.00
2018-08-20T11:53:59.446Z,23.00
2018-08-20T11:56:28.613Z,23.00
2018-08-20T11:58:57.627Z,23.10
2018-08-20T12:01:26.560Z,23.10
2018-08-20T12:03:56.223Z,23.20
2018-08-20T12:06:26.221Z,23.20
2018-08-20T12:08:55.183Z,23.20
2018-08-20T12:11:24.128Z,23.30
2018-08-20T12:16:13.304Z,23.30
2018-08-20T12:18:42.281Z,23.30
2018-08-20T12:21:11.508Z,23.30
2018-08-20T12:23:40.808Z,23.20
2018-08-20T12:26:10.080Z,23.20
2018-08-20T12:28:39.203Z,23.30
2018-08-20T12:31:08.132Z,23.30
2018-08-20T12:33:37.100Z,23.20
2018-08-20T12:36:06.589Z,23.20
2018-08-20T12:38:35.583Z,23.20
2018-08-20T12:41:04.880Z,23.20
2018-08-20T12:43:33.817Z,23.20
2018-08-20T12:46:03.069Z,23.20
2018-08-20T12:48:32.029Z,23.20
2018-08-20T12:51:00.989Z,23.30
2018-08-20T12:53:30.039Z,23.30
2018-08-20T12:55:59.020Z,23.40
2018-08-20T12:58:27.977Z,23.50
2018-08-20T13:00:56.986Z,23.50
2018-08-20T13:03:25.927Z,23.50
2018-08-20T13:05:54.914Z,23.50
2018-08-20T13:08:23.908Z,23.50
2018-08-20T13:10:52.892Z,23.60
2018-08-20T13:13:21.863Z,23.60
2018-08-20T13:15:50.878Z,23.70
2018-08-20T13:18:19.777Z,23.70
2018-08-20T13:20:48.815Z,23.80
2018-08-20T13:23:17.909Z,23.90
2018-08-20T13:25:46.894Z,23.90
2018-08-20T13:28:15.845Z,24.00
2018-08-20T13:30:44.974Z,24.10
2018-08-20T13:33:13.827Z,24.20
2018-08-20T13:35:42.788Z,24.30
2018-08-20T13:38:11.731Z,24.30
2018-08-20T13:40:40.694Z,24.40
2018-08-20T13:43:09.617Z,24.40
2018-08-20T13:45:38.728Z,24.50
2018-08-20T13:48:07.665Z,24.50
2018-08-20T13:50:36.626Z,24.60
2018-08-20T13:53:05.787Z,24.70
2018-08-20T13:55:34.770Z,24.70
2018-08-20T13:58:03.713Z,24.70
2018-08-20T14:00:32.696Z,24.70
2018-08-20T14:03:01.676Z,24.80
2018-08-20T14:05:30.690Z,24.80
2018-08-20T14:07:59.650Z,24.80
2018-08-20T14:10:28.631Z,24.80
2018-08-20T14:12:57.610Z,24.80
2018-08-20T14:15:26.644Z,24.60
2018-08-20T14:17:55.620Z,24.70
2018-08-20T14:20:24.621Z,24.70
2018-08-20T14:22:53.610Z,24.70
2018-08-20T14:25:22.604Z,24.80
2018-08-20T14:27:51.591Z,24.70
2018-08-20T14:30:20.601Z,24.70
2018-08-20T14:32:49.550Z,24.70
2018-08-20T14:35:18.568Z,24.70
2018-08-20T14:37:47.824Z,24.60
2018-08-20T14:40:22.994Z,24.60
2018-08-20T14:42:57.850Z,24.60
2018-08-20T14:45:37.863Z,24.60
2018-08-20T14:48:12.734Z,24.50
2018-08-20T14:50:47.603Z,24.50
2018-08-20T14:53:22.127Z,24.50
2018-08-20T14:55:56.676Z,24.40
2018-08-20T14:58:31.191Z,24.40
2018-08-20T15:01:06.075Z,24.40
2018-08-20T15:03:40.730Z,24.30
2018-08-20T15:06:15.479Z,24.30
2018-08-20T15:08:50.059Z,24.30
2018-08-20T15:11:24.753Z,24.30
2018-08-20T15:14:00.595Z,24.40
2018-08-20T15:16:35.355Z,24.40
2018-08-20T15:19:10.305Z,24.40
2018-08-20T15:21:47.154Z,24.50
2018-08-20T15:24:38.365Z,24.50
2018-08-20T15:27:15.899Z,24.60
2018-08-20T15:29:51.838Z,24.60
2018-08-20T15:32:26.541Z,24.50
2018-08-20T15:35:01.400Z,24.50
2018-08-20T15:37:36.030Z,24.50
2018-08-20T15:40:10.905Z,24.50
2018-08-20T15:42:45.564Z,24.60
2018-08-20T15:45:20.374Z,24.50
2018-08-20T15:47:55.098Z,24.50
2018-08-20T15:50:29.732Z,24.50
2018-08-20T15:53:04.553Z,24.50
2018-08-20T15:55:39.655Z,24.60
2018-08-20T15:58:14.579Z,24.50
2018-08-20T16:00:49.439Z,24.50
2018-08-20T16:03:24.392Z,24.50
2018-08-20T16:05:59.584Z,24.50
2018-08-20T16:08:34.683Z,24.50
2018-08-20T16:11:09.710Z,24.50
2018-08-20T16:13:47.737Z,24.50
2018-08-20T16:16:22.459Z,24.40
2018-08-20T16:18:57.385Z,24.40
2018-08-20T16:21:32.290Z,24.40
2018-08-20T16:24:07.003Z,24.30
2018-08-20T16:26:41.893Z,24.30
2018-08-20T16:29:16.813Z,24.20
2018-08-20T16:31:51.468Z,24.20
2018-08-20T16:34:26.197Z,24.20
2018-08-20T16:37:01.021Z,24.10
2018-08-20T16:39:35.838Z,24.10
2018-08-20T16:42:10.476Z,24.00
2018-08-20T16:44:45.220Z,24.00
2018-08-20T16:47:19.916Z,23.90
2018-08-20T16:49:54.462Z,23.90
2018-08-20T16:52:29.142Z,23.90
2018-08-20T16:55:05.635Z,23.80
2018-08-20T16:57:40.095Z,23.80
2018-08-20T17:00:14.786Z,23.80
2018-08-20T17:02:49.509Z,23.80
2018-08-20T17:05:25.047Z,23.70
2018-08-20T17:07:59.710Z,23.70
2018-08-20T17:10:34.483Z,23.70
2018-08-20T17:13:09.126Z,23.70
2018-08-20T17:15:43.612Z,23.70
2018-08-20T17:18:18.218Z,23.60
2018-08-20T17:20:52.823Z,23.50
2018-08-20T17:23:27.325Z,23.50
2018-08-20T17:26:01.897Z,23.40
2018-08-20T17:28:36.761Z,23.30
2018-08-20T17:31:14.392Z,23.30
2018-08-20T17:33:49.117Z,23.20
2018-08-20T17:36:23.792Z,23.20
2018-08-20T17:38:58.622Z,23.20
2018-08-20T17:41:33.473Z,23.10
2018-08-20T17:44:08.121Z,23.10
2018-08-20T17:46:42.602Z,23.00
2018-08-20T17:49:22.628Z,23.00
2018-08-20T17:51:57.199Z,22.90
2018-08-20T17:54:31.845Z,22.80
2018-08-20T17:57:06.351Z,22.80
2018-08-20T17:59:41.011Z,22.70
2018-08-20T18:02:22.802Z,22.70
2018-08-20T18:04:57.324Z,22.70
2018-08-20T18:07:32.102Z,22.70
2018-08-20T18:10:07.011Z,22.70
2018-08-20T18:12:41.490Z,22.70
2018-08-20T18:15:16.304Z,22.70
2018-08-20T18:17:51.041Z,22.70
2018-08-20T18:20:25.591Z,22.70
2018-08-20T18:23:00.364Z,22.70
2018-08-20T18:25:40.069Z,22.70
2018-08-20T18:28:14.818Z,22.70
2018-08-20T18:30:52.131Z,22.60
2018-08-20T18:33:28.480Z,22.60
2018-08-20T18:36:07.463Z,22.50
2018-08-20T18:39:13.646Z,22.50
2018-08-20T18:42:05.357Z,22.50
2018-08-20T18:44:40.162Z,22.50
2018-08-20T18:47:16.170Z,22.50
2018-08-20T18:49:56.287Z,22.50
2018-08-20T18:52:31.608Z,22.40
2018-08-20T18:55:06.301Z,22.40
2018-08-20T18:57:46.818Z,22.40
2018-08-20T19:00:21.800Z,22.40
2018-08-20T19:02:58.059Z,22.40
2018-08-20T19:05:44.049Z,22.40
2018-08-20T19:08:22.775Z,22.40
2018-08-20T19:11:00.831Z,22.40
2018-08-20T19:13:35.913Z,22.40
2018-08-20T19:16:42.817Z,22.40
2018-08-20T19:19:17.617Z,22.40
2018-08-20T19:21:52.426Z,22.40
2018-08-20T19:24:31.530Z,22.40
2018-08-20T19:27:10.675Z,22.40
2018-08-20T19:29:45.486Z,22.40
2018-08-20T19:32:21.427Z,22.30
2018-08-20T19:34:57.911Z,22.30
2018-08-20T19:37:33.454Z,22.40
2018-08-20T19:40:11.015Z,22.30
2018-08-20T19:42:48.089Z,22.30
2018-08-20T19:45:24.386Z,22.20
2018-08-20T19:48:00.466Z,22.20
2018-08-20T19:50:35.249Z,22.10
2018-08-20T19:53:15.282Z,22.10
2018-08-20T19:55:50.143Z,22.00
2018-08-20T19:58:31.017Z,22.10
2018-08-20T20:01:13.220Z,22.00
2018-08-20T20:03:49.285Z,22.00
2018-08-20T20:06:24.088Z,22.00
2018-08-20T20:09:02.261Z,22.00
2018-08-20T20:11:42.221Z,21.90
2018-08-20T20:14:16.722Z,22.00
2018-08-20T20:16:53.574Z,22.00
2018-08-20T20:19:28.194Z,22.00
2018-08-20T20:22:02.726Z,22.00
2018-08-20T20:24:37.534Z,22.00
2018-08-20T20:27:12.383Z,22.10
2018-08-20T20:29:47.157Z,22.10
2018-08-20T20:32:21.827Z,22.00
2018-08-20T20:34:56.545Z,22.10
2018-08-20T20:37:31.274Z,22.10
2018-08-20T20:40:06.273Z,22.00
2018-08-20T20:42:40.869Z,22.00
2018-08-20T20:45:17.555Z,22.00
2018-08-20T20:47:51.961Z,22.00
2018-08-20T20:50:26.656Z,22.00
2018-08-20T20:53:01.276Z,22.00
2018-08-20T20:55:36.020Z,22.00
2018-08-20T20:58:14.633Z,22.00
2018-08-20T21:00:49.365Z,22.00
2018-08-20T21:03:24.772Z,22.00
2018-08-20T21:05:59.375Z,21.90
2018-08-20T21:08:44.347Z,21.90
2018-08-20T21:11:21.221Z,21.90
2018-08-20T21:13:55.867Z,21.90
2018-08-20T21:16:30.609Z,21.90
2018-08-20T21:19:05.723Z,21.80
2018-08-20T21:21:40.386Z,21.80
2018-08-20T21:24:14.915Z,21.80
2018-08-20T21:26:49.473Z,21.80
2018-08-20T21:29:25.265Z,21.80
2018-08-20T21:31:59.850Z,21.80
2018-08-20T21:34:38.691Z,21.80
2018-08-20T21:37:13.858Z,21.80
2018-08-20T21:39:48.390Z,21.80
2018-08-20T21:42:33.614Z,21.80
2018-08-20T21:45:08.306Z,21.70
2018-08-20T21:47:42.805Z,21.70
2018-08-20T21:50:17.242Z,21.70
2018-08-20T21:52:51.741Z,21.70
2018-08-20T21:55:26.385Z,21.70
2018-08-20T21:58:01.100Z,21.70
2018-08-20T22:00:35.680Z,21.70
2018-08-20T22:03:10.896Z,21.70
2018-08-20T22:05:45.454Z,21.60
2018-08-20T22:08:20.131Z,21.60
2018-08-20T22:10:54.609Z,21.50
2018-08-20T22:13:29.263Z,21.50
2018-08-20T22:16:25.036Z,21.50
2018-08-20T22:18:59.776Z,21.50
2018-08-20T22:21:34.580Z,21.40
2018-08-20T22:24:09.042Z,21.30
2018-08-20T22:26:49.164Z,21.30
2018-08-20T22:29:23.819Z,21.30
2018-08-20T22:31:58.441Z,21.30
2018-08-20T22:34:33.066Z,21.30
2018-08-20T22:37:08.925Z,21.30
2018-08-20T22:39:46.189Z,21.20
2018-08-20T22:42:35.198Z,21.10
2018-08-20T22:45:10.885Z,21.10
2018-08-20T22:47:46.682Z,21.10
2018-08-20T22:50:21.338Z,21.20
2018-08-20T22:52:56.009Z,21.20
2018-08-20T22:55:30.630Z,21.10
2018-08-20T22:58:09.976Z,21.00
2018-08-20T23:00:44.595Z,21.10
2018-08-20T23:03:19.366Z,21.00
2018-08-20T23:05:53.939Z,21.00
2018-08-20T23:08:31.252Z,21.00
2018-08-20T23:11:05.945Z,21.00
2018-08-20T23:13:40.451Z,20.90
2018-08-20T23:16:15.116Z,20.90
2018-08-20T23:18:49.866Z,20.90
2018-08-20T23:21:26.025Z,20.80
2018-08-20T23:24:00.486Z,20.90
2018-08-20T23:26:35.214Z,20.90
2018-08-20T23:29:09.992Z,20.90
2018-08-20T23:31:44.605Z,20.90
2018-08-20T23:34:19.449Z,20.90
2018-08-20T23:36:54.232Z,20.80
2018-08-20T23:39:29.601Z,20.80
2018-08-20T23:42:04.174Z,20.80
2018-08-20T23:44:38.672Z,20.70
2018-08-20T23:47:13.350Z,20.80
2018-08-20T23:49:48.065Z,20.60
2018-08-20T23:52:22.856Z,20.60
2018-08-20T23:54:57.566Z,20.60
2018-08-20T23:57:32.138Z,20.60
